Cleveland, Ohio
Current Conditions -  °F | °C
As of 2:53 PM on Monday 24 Nov 2014 (Local Time) from KBKL Reporting Station
Broken Clouds Broken Clouds  
Wind Chill: 13°   Ceiling: 5500
Heat Index: 13°   Visibility: 10mi
Dew Point:   Wind: 39mph
Humidity: 57%   Direction: 220°SW
Pressure: 29.39"   Gusts: 60mph
Location:  41.5°N, 81.69°W
Report Text: KBKL 241953Z 22034G52KT 10SM SCT043 BKN055 13/05 A2939 RMK AO2 PK WND 22054/1927 PRESRR SLP953 T01330050
Loading
Personal Weather Stations






























Interactive Weather Map New forecast layout! Learn more

10-Day Weather Forecast

Advertisements
Track Severe Weather on mobile